createdAt,value
2022-08-05T00:01:35.522Z,2.97
2022-08-05T00:04:05.175Z,3.30
2022-08-05T00:06:36.260Z,3.43
2022-08-05T00:09:04.851Z,3.00
2022-08-05T00:11:49.584Z,3.00
2022-08-05T00:14:27.579Z,3.43
2022-08-05T00:16:57.146Z,2.83
2022-08-05T00:19:33.226Z,3.37
2022-08-05T00:22:08.383Z,2.97
2022-08-05T00:24:42.608Z,3.60
2022-08-05T00:27:13.995Z,3.13
2022-08-05T00:29:44.225Z,3.73
2022-08-05T00:32:14.794Z,3.80
2022-08-05T00:35:04.389Z,3.03
2022-08-05T00:37:50.283Z,3.50
2022-08-05T00:40:26.790Z,3.40
2022-08-05T00:42:55.695Z,4.80
2022-08-05T00:45:28.088Z,3.93
2022-08-05T00:48:06.394Z,3.10
2022-08-05T00:50:35.769Z,3.37
2022-08-05T00:53:03.411Z,4.13
2022-08-05T00:55:43.547Z,3.47
2022-08-05T00:58:12.027Z,3.63
2022-08-05T01:00:40.081Z,4.13
2022-08-05T01:03:08.128Z,3.57
2022-08-05T01:05:35.746Z,3.57
2022-08-05T01:08:40.575Z,3.80
2022-08-05T01:11:00.068Z,3.73
2022-08-05T01:13:58.861Z,3.20
2022-08-05T01:16:44.306Z,3.40
2022-08-05T01:19:56.827Z,3.50
2022-08-05T01:22:38.124Z,3.83
2022-08-05T01:25:13.499Z,4.07
2022-08-05T01:27:50.564Z,3.37
2022-08-05T01:30:33.729Z,3.73
2022-08-05T01:33:08.139Z,4.00
2022-08-05T01:35:52.061Z,3.93
2022-08-05T01:38:26.916Z,4.40
2022-08-05T01:40:56.111Z,3.90
2022-08-05T01:43:25.038Z,4.03
2022-08-05T01:45:56.783Z,3.80
2022-08-05T01:48:25.773Z,3.73
2022-08-05T01:50:55.950Z,4.07
2022-08-05T01:53:58.126Z,5.37
2022-08-05T01:56:12.697Z,4.10
2022-08-05T01:58:45.023Z,4.67
2022-08-05T02:01:14.895Z,3.97
2022-08-05T02:03:52.355Z,6.10
2022-08-05T02:06:33.522Z,5.93
2022-08-05T02:09:06.584Z,6.17
2022-08-05T02:11:52.487Z,5.73
2022-08-05T02:14:32.840Z,6.47
2022-08-05T02:17:29.637Z,6.83
2022-08-05T02:20:02.529Z,5.80
2022-08-05T02:22:47.548Z,6.23
2022-08-05T02:25:22.726Z,7.73
2022-08-05T02:27:59.273Z,8.80
2022-08-05T02:30:31.281Z,7.77
2022-08-05T02:33:02.982Z,8.30
2022-08-05T02:35:33.410Z,7.43
2022-08-05T02:38:05.586Z,9.30
2022-08-05T02:40:38.337Z,10.27
2022-08-05T02:43:07.797Z,9.57
2022-08-05T02:45:52.623Z,10.87
2022-08-05T02:48:29.303Z,8.30
2022-08-05T02:51:03.762Z,9.90
2022-08-05T02:53:39.365Z,9.73
2022-08-05T02:56:09.955Z,9.40
2022-08-05T02:58:44.633Z,8.63
2022-08-05T03:01:20.451Z,8.30
2022-08-05T03:04:03.232Z,8.73
2022-08-05T03:06:55.566Z,9.33
2022-08-05T03:09:36.070Z,9.13
2022-08-05T03:12:05.478Z,10.47
2022-08-05T03:14:32.966Z,10.77
2022-08-05T03:17:00.614Z,12.03
2022-08-05T03:19:33.810Z,9.13
2022-08-05T03:22:01.770Z,9.50
2022-08-05T03:24:32.359Z,11.70
2022-08-05T03:27:01.552Z,10.77
2022-08-05T03:29:45.854Z,11.57
2022-08-05T03:32:16.911Z,11.63
2022-08-05T03:34:51.116Z,13.53
2022-08-05T03:37:19.782Z,11.13
2022-08-05T03:39:59.104Z,11.97
2022-08-05T03:42:27.281Z,8.37
2022-08-05T03:44:57.054Z,12.43
2022-08-05T03:47:25.062Z,10.20
2022-08-05T03:49:53.034Z,10.27
2022-08-05T03:52:37.213Z,13.50
2022-08-05T03:56:04.121Z,14.63
2022-08-05T03:58:03.330Z,13.27
2022-08-05T04:00:32.957Z,12.13
2022-08-05T04:03:02.164Z,11.87
2022-08-05T04:05:34.574Z,12.90
2022-08-05T04:08:03.135Z,12.77
2022-08-05T04:10:37.596Z,12.03
2022-08-05T04:13:08.158Z,13.77
2022-08-05T04:15:36.142Z,15.80
2022-08-05T04:18:06.898Z,13.27
2022-08-05T04:20:35.562Z,12.80
2022-08-05T04:23:05.382Z,14.83
2022-08-05T04:25:57.689Z,15.60
2022-08-05T04:28:30.953Z,16.97
2022-08-05T04:31:01.016Z,17.13
2022-08-05T04:34:18.259Z,17.70
2022-08-05T04:36:46.213Z,16.30
2022-08-05T04:39:07.621Z,17.60
2022-08-05T04:41:37.774Z,16.53
2022-08-05T04:44:09.046Z,14.10
2022-08-05T04:46:38.094Z,18.87
2022-08-05T04:49:12.107Z,15.93
2022-08-05T04:51:43.511Z,16.37
2022-08-05T04:54:13.061Z,16.77
2022-08-05T04:56:41.053Z,15.13
2022-08-05T04:59:21.964Z,16.93
2022-08-05T05:02:08.159Z,16.70
2022-08-05T05:04:43.960Z,15.67
2022-08-05T05:07:17.147Z,14.03
2022-08-05T05:09:45.519Z,13.90
2022-08-05T05:12:13.071Z,14.00
2022-08-05T05:14:49.567Z,15.20
2022-08-05T05:17:23.848Z,16.00
2022-08-05T05:19:57.166Z,13.70
2022-08-05T05:22:26.050Z,12.43
2022-08-05T05:25:00.325Z,13.40
2022-08-05T05:27:45.847Z,12.67
2022-08-05T05:30:29.275Z,14.30
2022-08-05T05:33:00.465Z,12.80
2022-08-05T05:35:31.518Z,10.77
2022-08-05T05:38:05.652Z,11.73
2022-08-05T05:40:39.874Z,13.87
2022-08-05T05:43:13.655Z,13.50
2022-08-05T05:45:48.170Z,14.53
2022-08-05T05:48:16.276Z,13.30
2022-08-05T05:50:53.155Z,11.93
2022-08-05T05:53:22.949Z,11.33
2022-08-05T05:56:00.816Z,12.20
2022-08-05T05:58:32.341Z,11.77
2022-08-05T06:01:13.050Z,12.00
2022-08-05T06:04:00.400Z,9.93
2022-08-05T06:06:33.248Z,9.73
2022-08-05T06:09:04.048Z,8.13
2022-08-05T06:11:32.417Z,8.63
2022-08-05T06:14:00.753Z,8.33
2022-08-05T06:16:36.973Z,7.87
2022-08-05T06:19:07.536Z,7.60
2022-08-05T06:21:37.486Z,7.10
2022-08-05T06:24:07.614Z,7.27
2022-08-05T06:26:37.469Z,5.87
2022-08-05T06:29:23.733Z,6.03
2022-08-05T06:31:52.700Z,6.33
2022-08-05T06:34:22.699Z,6.40
2022-08-05T06:36:58.838Z,5.40
2022-08-05T06:39:29.052Z,5.60
2022-08-05T06:42:01.688Z,5.13
2022-08-05T06:44:34.104Z,5.07
2022-08-05T06:47:04.201Z,5.97
2022-08-05T06:50:00.119Z,5.40
2022-08-05T06:52:37.354Z,5.27
2022-08-05T06:55:08.813Z,4.80
2022-08-05T06:58:03.355Z,4.27
2022-08-05T07:00:24.766Z,5.57
2022-08-05T07:02:53.651Z,4.33
2022-08-05T07:05:37.522Z,4.87
2022-08-05T07:08:05.924Z,4.90
2022-08-05T07:10:38.224Z,4.90
2022-08-05T07:13:05.830Z,5.77
2022-08-05T07:15:34.339Z,5.00
2022-08-05T07:18:27.453Z,4.30
2022-08-05T07:20:57.569Z,5.10
2022-08-05T07:23:26.295Z,4.57
2022-08-05T07:25:57.177Z,4.83
2022-08-05T07:28:27.547Z,3.63
2022-08-05T07:30:55.279Z,4.97
2022-08-05T07:33:35.273Z,3.70
2022-08-05T07:36:19.876Z,4.53
2022-08-05T07:38:48.939Z,4.17
2022-08-05T07:42:09.177Z,3.60
2022-08-05T07:44:06.594Z,4.00
2022-08-05T07:46:43.103Z,2.53
2022-08-05T07:49:16.395Z,3.33
2022-08-05T07:51:52.870Z,3.67
2022-08-05T07:54:23.161Z,3.87
2022-08-05T07:57:13.282Z,3.53
2022-08-05T07:59:44.265Z,3.93
2022-08-05T08:02:17.812Z,3.33
2022-08-05T08:04:46.386Z,3.10
2022-08-05T08:07:15.019Z,3.30
2022-08-05T08:09:44.244Z,4.03
2022-08-05T08:12:35.486Z,3.53
2022-08-05T08:15:02.455Z,3.00
2022-08-05T08:17:31.504Z,2.80
2022-08-05T08:20:42.517Z,2.60
2022-08-05T08:22:55.810Z,2.60
2022-08-05T08:25:34.602Z,2.97
2022-08-05T08:28:18.689Z,3.00
2022-08-05T08:31:02.252Z,3.07
2022-08-05T08:33:35.954Z,2.30
2022-08-05T08:38:58.411Z,2.43
2022-08-05T08:41:51.946Z,2.50
2022-08-05T08:45:20.620Z,2.47
2022-08-05T08:47:47.197Z,2.53
2022-08-05T08:50:05.801Z,2.33
2022-08-05T08:52:47.435Z,3.30
2022-08-05T08:55:32.166Z,2.60
2022-08-05T08:58:08.703Z,2.53
2022-08-05T09:00:36.842Z,2.80
2022-08-05T09:03:06.458Z,3.07
2022-08-05T09:05:38.269Z,2.30
2022-08-05T09:08:26.699Z,2.97
2022-08-05T09:10:58.220Z,2.43
2022-08-05T09:13:31.843Z,2.30
2022-08-05T09:16:16.957Z,2.27
2022-08-05T09:18:44.794Z,3.30
2022-08-05T09:21:21.155Z,2.93
2022-08-05T09:24:03.992Z,3.40
2022-08-05T09:26:34.382Z,2.40
2022-08-05T09:29:08.956Z,3.37
2022-08-05T09:32:40.003Z,3.60
2022-08-05T09:34:26.082Z,2.60
2022-08-05T09:36:56.295Z,2.17
2022-08-05T09:39:39.290Z,2.77
2022-08-05T09:42:11.389Z,2.20
2022-08-05T09:44:45.142Z,2.60
2022-08-05T09:47:20.587Z,2.90
2022-08-05T09:50:01.199Z,2.80
2022-08-05T09:52:32.065Z,2.20
2022-08-05T09:55:55.330Z,2.30
2022-08-05T09:57:54.549Z,1.63
2022-08-05T10:00:26.600Z,2.07
2022-08-05T10:02:57.992Z,1.80
2022-08-05T10:05:27.604Z,1.90
2022-08-05T10:08:35.407Z,1.37
2022-08-05T10:10:45.359Z,1.63
2022-08-05T10:13:43.957Z,2.67
2022-08-05T10:16:29.005Z,2.50
2022-08-05T10:18:57.628Z,2.20
2022-08-05T10:21:25.237Z,1.80
2022-08-05T10:23:59.276Z,2.07
2022-08-05T10:26:32.700Z,1.87
2022-08-05T10:29:01.587Z,2.30
2022-08-05T10:33:01.294Z,2.73
2022-08-05T10:34:17.167Z,2.40
2022-08-05T10:36:45.038Z,2.40
2022-08-05T10:39:24.782Z,2.37
2022-08-05T10:42:04.174Z,2.60
2022-08-05T10:44:33.045Z,2.40
2022-08-05T10:47:10.321Z,2.20
2022-08-05T10:50:31.691Z,2.77
2022-08-05T10:52:58.583Z,2.50
2022-08-05T10:55:27.152Z,2.70
2022-08-05T11:00:54.985Z,2.10
2022-08-05T11:03:26.643Z,2.03
2022-08-05T11:06:15.754Z,2.30
2022-08-05T11:09:03.983Z,2.83
2022-08-05T11:11:52.341Z,2.53
2022-08-05T11:14:57.830Z,2.30
2022-08-05T11:17:57.401Z,2.20
2022-08-05T11:20:36.092Z,2.17
2022-08-05T11:23:22.228Z,2.40
2022-08-05T11:26:10.009Z,2.40
2022-08-05T11:28:41.227Z,2.20
2022-08-05T11:31:08.765Z,2.37
2022-08-05T11:33:46.471Z,2.13
2022-08-05T11:36:34.405Z,1.80
2022-08-05T11:39:04.927Z,2.10
2022-08-05T11:41:54.751Z,2.07
2022-08-05T11:44:31.197Z,2.93
2022-08-05T11:47:13.992Z,1.97
2022-08-05T11:49:49.712Z,1.70
2022-08-05T11:52:29.358Z,1.97
2022-08-05T11:54:57.769Z,2.27
2022-08-05T11:57:30.725Z,2.33
2022-08-05T12:00:25.618Z,2.77
2022-08-05T12:02:56.555Z,2.07
2022-08-05T12:05:32.304Z,2.17
2022-08-05T12:08:18.282Z,1.80
2022-08-05T12:10:46.627Z,2.17
2022-08-05T12:13:27.855Z,1.60
2022-08-05T12:16:18.461Z,2.27
2022-08-05T12:18:52.262Z,2.27
2022-08-05T12:21:50.353Z,1.53
2022-08-05T12:24:19.457Z,1.80
2022-08-05T12:26:48.564Z,1.57
2022-08-05T12:29:27.026Z,1.47
2022-08-05T12:31:55.969Z,1.53
2022-08-05T12:34:30.648Z,2.13
2022-08-05T12:37:03.390Z,1.63
2022-08-05T12:39:34.519Z,2.10
2022-08-05T12:42:17.238Z,1.80
2022-08-05T12:44:45.795Z,1.50
2022-08-05T12:47:17.110Z,1.60
2022-08-05T12:50:04.252Z,1.50
2022-08-05T12:52:41.699Z,1.60
2022-08-05T12:55:22.930Z,2.50
2022-08-05T12:58:48.882Z,2.07
2022-08-05T13:02:00.765Z,1.90
2022-08-05T13:03:32.399Z,1.13
2022-08-05T13:06:02.159Z,1.83
2022-08-05T13:08:32.337Z,1.67
2022-08-05T13:11:04.111Z,2.10
2022-08-05T13:14:06.426Z,2.63
2022-08-05T13:16:20.092Z,1.60
2022-08-05T13:18:55.198Z,0.97
2022-08-05T13:21:28.433Z,1.33
2022-08-05T13:24:08.818Z,1.40
2022-08-05T13:26:36.780Z,1.53
2022-08-05T13:29:05.152Z,1.07
2022-08-05T13:31:33.929Z,1.00
2022-08-05T13:34:25.932Z,1.13
2022-08-05T13:36:54.299Z,1.00
2022-08-05T13:40:13.067Z,1.30
2022-08-05T13:42:13.962Z,1.87
2022-08-05T13:44:45.026Z,1.00
2022-08-05T13:47:35.705Z,1.20
2022-08-05T13:50:08.525Z,1.60
2022-08-05T13:52:38.967Z,1.47
2022-08-05T13:55:09.830Z,1.20
2022-08-05T13:57:48.961Z,1.00
2022-08-05T14:00:27.702Z,1.30
2022-08-05T14:02:56.675Z,1.40
2022-08-05T14:05:48.188Z,1.20
2022-08-05T14:08:20.698Z,1.00
2022-08-05T14:10:49.054Z,1.30
2022-08-05T14:13:16.602Z,0.90
2022-08-05T14:16:05.956Z,1.00
2022-08-05T14:18:31.804Z,0.60
2022-08-05T14:21:00.148Z,0.60
2022-08-05T14:23:36.326Z,0.97
2022-08-05T14:26:04.865Z,1.00
2022-08-05T14:28:33.871Z,0.80
2022-08-05T14:31:02.085Z,0.97
2022-08-05T14:33:56.629Z,0.90
2022-08-05T14:36:21.256Z,0.77
2022-08-05T14:38:49.460Z,1.00
2022-08-05T14:41:16.969Z,0.80
2022-08-05T14:43:59.215Z,1.60
2022-08-05T14:46:35.140Z,0.77
2022-08-05T14:49:07.502Z,0.90
2022-08-05T14:51:42.558Z,0.60
2022-08-05T14:54:28.312Z,0.70
2022-08-05T14:56:58.083Z,0.80
2022-08-05T14:59:29.329Z,0.70
2022-08-05T15:02:02.908Z,0.80
2022-08-05T15:04:30.510Z,0.63
2022-08-05T15:06:58.201Z,0.60
2022-08-05T15:09:52.463Z,0.80
2022-08-05T15:12:16.789Z,0.70
2022-08-05T15:14:50.274Z,0.70
2022-08-05T15:17:46.814Z,0.77
2022-08-05T15:20:15.647Z,0.93
2022-08-05T15:22:44.869Z,0.50
2022-08-05T15:25:14.285Z,0.80
2022-08-05T15:27:42.985Z,0.40
2022-08-05T15:30:19.839Z,0.63
2022-08-05T15:32:47.364Z,0.53
2022-08-05T15:35:15.084Z,0.80
2022-08-05T15:38:32.299Z,0.70
2022-08-05T15:41:00.019Z,0.93
2022-08-05T15:43:20.112Z,0.60
2022-08-05T15:46:00.684Z,0.77
2022-08-05T15:48:29.371Z,0.80
2022-08-05T15:50:57.101Z,0.80
2022-08-05T15:53:26.359Z,0.60
2022-08-05T15:56:02.463Z,0.60
2022-08-05T15:58:36.961Z,0.90
2022-08-05T16:01:16.965Z,0.80
2022-08-05T16:03:48.439Z,0.70
2022-08-05T16:06:20.270Z,0.77
2022-08-05T16:08:50.957Z,1.40
2022-08-05T16:11:20.867Z,1.17
2022-08-05T16:14:06.675Z,0.90
2022-08-05T16:16:34.130Z,1.47
2022-08-05T16:19:01.766Z,0.90
2022-08-05T16:21:58.471Z,0.67
2022-08-05T16:24:39.722Z,0.90
2022-08-05T16:27:05.138Z,0.80
2022-08-05T16:29:37.619Z,0.60
2022-08-05T16:32:05.978Z,0.80
2022-08-05T16:34:33.680Z,1.00
2022-08-05T16:37:01.178Z,0.83
2022-08-05T16:40:06.577Z,0.60
2022-08-05T16:42:19.457Z,0.60
2022-08-05T16:44:57.065Z,1.20
2022-08-05T16:47:35.819Z,0.60
2022-08-05T16:50:08.711Z,0.70
2022-08-05T16:52:36.759Z,1.17
2022-08-05T16:55:04.464Z,0.60
2022-08-05T16:57:53.387Z,0.73
2022-08-05T17:00:26.191Z,0.60
2022-08-05T17:03:15.220Z,1.00
2022-08-05T17:05:53.755Z,0.60
2022-08-05T17:08:36.734Z,0.70
2022-08-05T17:11:12.862Z,1.10
2022-08-05T17:13:44.405Z,0.90
2022-08-05T17:16:29.622Z,0.60
2022-08-05T17:18:57.886Z,0.57
2022-08-05T17:21:25.362Z,0.70
2022-08-05T17:24:07.636Z,0.80
2022-08-05T17:26:48.090Z,0.60
2022-08-05T17:29:15.615Z,0.80
2022-08-05T17:31:58.216Z,0.60
2022-08-05T17:34:29.731Z,0.70
2022-08-05T17:36:59.601Z,0.87
2022-08-05T17:39:33.205Z,0.80
2022-08-05T17:42:18.439Z,0.80
2022-08-05T17:44:50.144Z,1.00
2022-08-05T17:47:21.994Z,1.00
2022-08-05T17:50:04.077Z,1.03
2022-08-05T17:52:53.306Z,0.50
2022-08-05T17:55:34.606Z,0.80
2022-08-05T17:58:09.389Z,0.87
2022-08-05T18:00:40.794Z,1.40
2022-08-05T18:03:23.719Z,1.23
2022-08-05T18:05:56.021Z,1.50
2022-08-05T18:08:31.085Z,1.30
2022-08-05T18:11:00.893Z,1.20
2022-08-05T18:13:36.689Z,1.10
2022-08-05T18:16:13.446Z,0.93
2022-08-05T18:18:41.589Z,1.27
2022-08-05T18:21:19.862Z,1.40
2022-08-05T18:23:53.743Z,1.50
2022-08-05T18:26:22.194Z,1.10
2022-08-05T18:28:57.705Z,1.20
2022-08-05T18:31:25.310Z,0.80
2022-08-05T18:33:53.438Z,0.90
2022-08-05T18:36:28.056Z,0.73
2022-08-05T18:38:56.344Z,0.87
2022-08-05T18:41:56.091Z,1.00
2022-08-05T18:44:12.742Z,0.80
2022-08-05T18:46:41.012Z,0.60
2022-08-05T18:49:08.952Z,0.80
2022-08-05T18:52:02.871Z,0.90
2022-08-05T18:54:26.196Z,0.80
2022-08-05T18:56:57.152Z,0.77
2022-08-05T18:59:43.587Z,1.00
2022-08-05T19:02:28.591Z,0.70
2022-08-05T19:05:02.642Z,0.77
2022-08-05T19:07:46.567Z,1.50
2022-08-05T19:10:15.023Z,1.00
2022-08-05T19:12:43.473Z,0.90
2022-08-05T19:15:25.152Z,0.80
2022-08-05T19:18:09.455Z,0.80
2022-08-05T19:20:41.624Z,1.00
2022-08-05T19:24:04.047Z,0.83
2022-08-05T19:26:01.941Z,0.90
2022-08-05T19:28:32.679Z,0.90
2022-08-05T19:31:01.257Z,0.50
2022-08-05T19:33:35.415Z,0.90
2022-08-05T19:36:06.057Z,0.83
2022-08-05T19:38:35.761Z,1.00
2022-08-05T19:41:07.288Z,0.90
2022-08-05T19:44:06.491Z,1.00
2022-08-05T19:46:29.055Z,0.90
2022-08-05T19:49:03.640Z,0.90
2022-08-05T19:52:05.463Z,0.90
2022-08-05T19:54:26.826Z,0.87
2022-08-05T19:56:58.649Z,1.00
2022-08-05T19:59:54.992Z,0.70
2022-08-05T20:02:13.888Z,0.80
2022-08-05T20:04:43.135Z,0.80
2022-08-05T20:07:14.063Z,0.73
2022-08-05T20:09:53.984Z,0.80
2022-08-05T20:12:23.999Z,1.20
2022-08-05T20:14:52.885Z,0.80
2022-08-05T20:17:23.261Z,0.80
2022-08-05T20:19:56.623Z,0.70
2022-08-05T20:22:26.680Z,1.10
2022-08-05T20:24:54.445Z,1.10
2022-08-05T20:27:26.666Z,1.10
2022-08-05T20:29:57.569Z,1.20
2022-08-05T20:32:27.295Z,1.50
2022-08-05T20:34:55.216Z,1.03
2022-08-05T20:38:06.638Z,1.17
2022-08-05T20:40:10.690Z,1.00
2022-08-05T20:42:38.418Z,1.00
2022-08-05T20:45:07.283Z,0.90
2022-08-05T20:47:40.069Z,0.97
2022-08-05T20:50:08.292Z,0.83
2022-08-05T20:52:39.197Z,1.07
2022-08-05T20:55:56.503Z,1.00
2022-08-05T20:57:57.140Z,1.50
2022-08-05T21:00:44.325Z,1.10
2022-08-05T21:03:12.295Z,0.90
2022-08-05T21:05:53.505Z,1.13
2022-08-05T21:08:26.797Z,1.10
2022-08-05T21:11:00.754Z,1.10
2022-08-05T21:13:48.200Z,1.40
2022-08-05T21:16:30.026Z,1.20
2022-08-05T21:19:00.353Z,1.10
2022-08-05T21:21:44.139Z,1.20
2022-08-05T21:24:17.070Z,0.90
2022-08-05T21:26:53.418Z,1.10
2022-08-05T21:29:32.071Z,1.70
2022-08-05T21:32:00.496Z,1.20
2022-08-05T21:34:28.174Z,1.10
2022-08-05T21:36:55.905Z,1.20
2022-08-05T21:39:26.815Z,1.03
2022-08-05T21:42:01.457Z,1.37
2022-08-05T21:44:32.632Z,1.50
2022-08-05T21:47:00.434Z,2.00
2022-08-05T21:49:56.509Z,1.70
2022-08-05T21:52:27.205Z,1.23
2022-08-05T21:54:56.236Z,1.20
2022-08-05T21:57:32.411Z,1.20
2022-08-05T22:00:05.959Z,1.40
2022-08-05T22:02:34.559Z,1.63
2022-08-05T22:05:02.242Z,1.47
2022-08-05T22:07:39.910Z,1.30
2022-08-05T22:10:26.701Z,1.50
2022-08-05T22:12:57.231Z,1.27
2022-08-05T22:16:01.813Z,1.23
2022-08-05T22:18:14.498Z,1.47
2022-08-05T22:20:42.913Z,1.37
2022-08-05T22:23:16.716Z,1.10
2022-08-05T22:26:10.334Z,1.37
2022-08-05T22:28:32.666Z,1.07
2022-08-05T22:31:05.229Z,1.50
2022-08-05T22:33:58.636Z,1.47
2022-08-05T22:36:24.109Z,1.40
2022-08-05T22:38:52.148Z,1.70
2022-08-05T22:41:25.956Z,2.00
2022-08-05T22:44:09.429Z,1.30
2022-08-05T22:46:40.674Z,1.03
2022-08-05T22:49:12.529Z,1.93
2022-08-05T22:52:06.327Z,1.00
2022-08-05T22:54:36.959Z,1.13
2022-08-05T22:57:07.506Z,1.00
2022-08-05T22:59:45.304Z,1.17
2022-08-05T23:02:18.395Z,0.93
2022-08-05T23:04:58.277Z,1.47
2022-08-05T23:07:30.301Z,1.60
2022-08-05T23:10:02.227Z,1.20
2022-08-05T23:12:32.374Z,1.50
2022-08-05T23:15:04.027Z,1.77
2022-08-05T23:17:59.747Z,1.43
2022-08-05T23:20:24.687Z,1.00
2022-08-05T23:22:55.672Z,1.60
2022-08-05T23:25:53.007Z,1.97
2022-08-05T23:28:12.401Z,1.23
2022-08-05T23:30:43.514Z,1.83
2022-08-05T23:33:22.629Z,1.40
2022-08-05T23:36:00.043Z,1.80
2022-08-05T23:38:27.518Z,2.10
2022-08-05T23:40:55.112Z,1.77
2022-08-05T23:43:25.173Z,1.70
2022-08-05T23:46:21.040Z,1.70
2022-08-05T23:48:59.287Z,1.67
2022-08-05T23:51:29.222Z,1.60
2022-08-05T23:54:01.014Z,1.57
2022-08-05T23:56:28.949Z,1.07
2022-08-05T23:58:58.738Z,1.10
